This is the latest recevied weather packets stored in our database for station/object TF3VP-10. If no packets are shown the sender has not sent any weather packets the latest 10 day(s).
| Time | Temp. | Humidity | Pressure | Rain* | Wind** | Luminosity | Snow |
|---|---|---|---|---|---|---|---|
| 1777500348 | 4.44° C | 63% | 1024.2 hPa | 0 mm | - | - | - |
| 1777495848 | 4.44° C | 66% | 1024.2 hPa | 0 mm | - | - | - |
| 1777494048 | 5° C | 59% | 1023.9 hPa | 0 mm | - | - | - |
| 1777493148 | 5° C | 59% | 1023.9 hPa | 0 mm | - | - | - |
| 1777491349 | 5° C | 64% | 1024 hPa | 0 mm | - | - | - |
| 1777490447 | 5.56° C | 65% | 1024.2 hPa | 0 mm | - | - | - |
| 1777489548 | 5.56° C | 65% | 1024.2 hPa | 0 mm | - | - | - |
| 1777488648 | 6.11° C | 60% | 1023.9 hPa | 0 mm | - | - | - |
| 1777487748 | 6.11° C | 60% | 1023.9 hPa | 0 mm | - | - | - |
| 1777482348 | 6.11° C | 64% | 1023.9 hPa | 0 mm | - | - | - |
| 1777473348 | 6.11° C | 59% | 1024 hPa | 0 mm | - | - | - |
| 1777465248 | 5.56° C | 59% | 1023.9 hPa | 0 mm | - | - | - |
| 1777463448 | 5° C | 60% | 1023.8 hPa | 0 mm | - | - | - |
| 1777462547 | 5° C | 60% | 1023.8 hPa | 0 mm | - | - | - |
| 1777460747 | 4.44° C | 62% | 1023.9 hPa | 0 mm | - | - | - |
| 1777458947 | 5.56° C | 58% | 1023.6 hPa | 0 mm | - | - | - |
| 1777458047 | 5.56° C | 60% | 1023.6 hPa | 0 mm | - | - | - |
| 1777457147 | 5.56° C | 60% | 1023.6 hPa | 0 mm | - | - | - |
| 1777455347 | 5.56° C | 58% | 1023.6 hPa | 0 mm | - | - | - |
| 1777454447 | 5° C | 58% | 1023.6 hPa | 0 mm | - | - | - |
| 1777453548 | 5° C | 58% | 1023.6 hPa | 0 mm | - | - | - |
| 1777452648 | 5° C | 63% | 1023.8 hPa | 0 mm | - | - | - |
| 1777451747 | 5° C | 63% | 1023.8 hPa | 0 mm | - | - | - |
| 1777450847 | 5° C | 61% | 1023.9 hPa | 0 mm | - | - | - |
| 1777449947 | 5° C | 61% | 1023.9 hPa | 0 mm | - | - | - |
* Rain latest hour (hover to see other rain measurements)
** Current wind speed in m/s (hover to see current wind gust speed)